| time (UTC) | temp F | wind direction | speed MPH | gust MPH | rain 1hr in | rain 24hr in | rain mn in | humidity % | barometer mb |
| 20260503200446 | 61 | 224 | 2.0 | 12.0 | 0.00 | 0.00 | 0.00 | 43 | 1014.7 |
| 20260503195915 | 61 | 245 | 9.0 | 12.0 | 0.00 | 0.00 | 0.00 | 40 | 1014.8 |
| 20260503195449 | 62 | 261 | 1.0 | 14.0 | 0.00 | 0.00 | 0.00 | 44 | 1014.8 |
| 20260503193428 | 62 | 215 | 5.0 | 13.0 | 0.00 | 0.00 | 0.00 | 42 | 1015.3 |
| 20260503192000 | 61 | 254 | 4.0 | 13.0 | 0.00 | 0.00 | 0.00 | 46 | 1015.7 |
| 20260503190948 | 61 | 220 | 7.0 | 16.0 | 0.00 | 0.00 | 0.00 | 40 | 1015.9 |
| 20260503190421 | 61 | 248 | 8.0 | 16.0 | 0.00 | 0.00 | 0.00 | 39 | 1016.0 |
| 20260503185932 | 61 | 224 | 7.0 | 13.0 | 0.00 | 0.00 | 0.00 | 39 | 1015.9 |
| 20260503185506 | 61 | 220 | 4.0 | 13.0 | 0.00 | 0.00 | 0.00 | 44 | 1016.0 |
| 20260503184923 | 61 | 248 | 7.0 | 13.0 | 0.00 | 0.00 | 0.00 | 42 | 1015.9 |
| 20260503184457 | 61 | 212 | 3.0 | 9.0 | 0.00 | 0.00 | 0.00 | 50 | 1016.0 |
| 20260503183930 | 61 | 174 | 6.0 | 12.0 | 0.00 | 0.00 | 0.00 | 42 | 1016.2 |
| 20260503183504 | 61 | 230 | 7.0 | 12.0 | 0.00 | 0.00 | 0.00 | 42 | 1016.3 |
| 20260503181928 | 60 | 249 | 5.0 | 12.0 | 0.00 | 0.00 | 0.00 | 39 | 1016.3 |
| 20260503181503 | 60 | 199 | 5.0 | 12.0 | 0.00 | 0.00 | 0.00 | 41 | 1016.5 |
| 20260503180919 | 60 | 251 | 4.0 | 11.0 | 0.00 | 0.00 | 0.00 | 45 | 1016.5 |
| 20260503180452 | 59 | 108 | 3.0 | 11.0 | 0.00 | 0.00 | 0.00 | 42 | 1016.5 |
| 20260503180004 | 59 | 242 | 9.0 | 14.0 | 0.00 | 0.00 | 0.00 | 42 | 1016.6 |
| 20260503175437 | 59 | 249 | 11.0 | 14.0 | 0.00 | 0.00 | 0.00 | 41 | 1016.6 |
| 20260503174910 | 60 | 243 | 6.0 | 11.0 | 0.00 | 0.00 | 0.00 | 41 | 1016.8 |
| 20260503173920 | 59 | 235 | 5.0 | 14.0 | 0.00 | 0.00 | 0.00 | 40 | 1017.0 |
| 20260503173454 | 60 | 208 | 9.0 | 14.0 | 0.00 | 0.00 | 0.00 | 44 | 1017.0 |
| 20260503172911 | 59 | 217 | 6.0 | 8.0 | 0.00 | 0.00 | 0.00 | 42 | 1017.1 |
| 20260503171437 | 59 | 205 | 9.0 | 11.0 | 0.00 | 0.00 | 0.00 | 42 | 1017.5 |
| 20260503150951 | 54 | 240 | 4.0 | 6.0 | 0.00 | 0.00 | 0.00 | 54 | 1018.9 |
| 20260503150424 | 53 | 241 | 3.0 | 9.0 | 0.00 | 0.00 | 0.00 | 59 | 1018.8 |
| 20260503130910 | 41 | 212 | 4.0 | 6.0 | 0.00 | 0.00 | 0.00 | 79 | 1019.2 |
| 20260503110425 | 34 | 341 | 0.0 | 0.0 | 0.00 | 0.00 | 0.00 | 92 | 1018.3 |
| 20260503090451 | 35 | 341 | 0.0 | 0.0 | 0.00 | 0.00 | 0.00 | 92 | 1017.6 |
| 20260503081432 | 35 | 341 | 0.0 | 0.0 | 0.00 | 0.00 | 0.00 | 91 | 1017.5 |
| 20260503081004 | 35 | 341 | 0.0 | 0.0 | 0.00 | 0.00 | 0.00 | 91 | 1017.4 |
| 20260503072427 | 35 | 341 | 0.0 | 0.0 | 0.00 | 0.00 | 0.00 | 89 | 1017.3 |
| 20260503072001 | 35 | 341 | 0.0 | 0.0 | 0.00 | 0.00 | 0.00 | 89 | 1017.3 |
| 20260503071417 | 35 | 341 | 0.0 | 0.0 | 0.00 | 0.00 | 0.00 | 89 | 1017.2 |
| 20260503070952 | 35 | 341 | 0.0 | 0.0 | 0.00 | 0.00 | 0.00 | 89 | 1017.3 |
| 20260503070425 | 35 | 341 | 0.0 | 0.0 | 0.00 | 0.00 | 0.00 | 88 | 1017.3 |
| 20260503054426 | 36 | 341 | 0.0 | 0.0 | 0.00 | 0.00 | 0.00 | 92 | 1017.6 |
| 20260503053914 | 36 | 341 | 0.0 | 0.0 | 0.00 | 0.00 | 0.00 | 87 | 1017.6 |
| 20260503053423 | 36 | 341 | 0.0 | 0.0 | 0.00 | 0.00 | 0.00 | 87 | 1017.7 |
| 20260503052911 | 36 | 341 | 0.0 | 0.0 | 0.00 | 0.00 | 0.00 | 86 | 1017.7 |
| 20260503052419 | 36 | 341 | 0.0 | 0.0 | 0.00 | 0.00 | 0.00 | 86 | 1017.8 |
| 20260503051907 | 37 | 341 | 0.0 | 0.0 | 0.00 | 0.00 | 0.00 | 86 | 1017.8 |
| 20260503051414 | 37 | 341 | 0.0 | 0.0 | 0.00 | 0.00 | 0.00 | 86 | 1017.7 |
| 20260503050922 | 37 | 341 | 0.0 | 0.0 | 0.00 | 0.00 | 0.00 | 85 | 1017.7 |
| 20260503050410 | 37 | 341 | 0.0 | 0.0 | 0.00 | 0.00 | 0.00 | 85 | 1017.7 |
| 20260503045919 | 37 | 341 | 0.0 | 0.0 | 0.00 | 0.00 | 0.00 | 84 | 1017.8 |
| 20260503045407 | 37 | 341 | 0.0 | 0.0 | 0.00 | 0.00 | 0.00 | 84 | 1017.9 |
| 20260503044915 | 37 | 341 | 0.0 | 0.0 | 0.00 | 0.00 | 0.00 | 83 | 1017.7 |
| 20260503044423 | 37 | 341 | 0.0 | 0.0 | 0.00 | 0.00 | 0.00 | 83 | 1017.8 |
| 20260503043420 | 38 | 341 | 0.0 | 0.0 | 0.00 | 0.00 | 0.00 | 82 | 1017.8 |
| 20260503042908 | 38 | 341 | 0.0 | 0.0 | 0.00 | 0.00 | 0.00 | 82 | 1017.8 |
| 20260503042416 | 38 | 341 | 0.0 | 0.0 | 0.00 | 0.00 | 0.00 | 81 | 1017.8 |
| 20260503041415 | 38 | 341 | 0.0 | 0.0 | 0.00 | 0.00 | 0.00 | 80 | 1017.8 |
| 20260503040418 | 38 | 341 | 0.0 | 0.0 | 0.00 | 0.00 | 0.00 | 79 | 1017.8 |
| 20260503035441 | 39 | 341 | 0.0 | 0.0 | 0.00 | 0.00 | 0.00 | 79 | 1017.9 |
| 20260503034429 | 39 | 341 | 0.0 | 0.0 | 0.00 | 0.00 | 0.00 | 78 | 1018.0 |
| 20260503034003 | 39 | 341 | 0.0 | 0.0 | 0.00 | 0.00 | 0.00 | 78 | 1018.0 |
| 20260503032437 | 40 | 341 | 0.0 | 0.0 | 0.00 | 0.00 | 0.00 | 75 | 1017.8 |
| 20260503031909 | 40 | 341 | 0.0 | 0.0 | 0.00 | 0.00 | 0.00 | 75 | 1017.8 |
| 20260503030959 | 41 | 341 | 0.0 | 0.0 | 0.00 | 0.00 | 0.00 | 72 | 1017.8 |
| 20260503030431 | 41 | 341 | 0.0 | 0.0 | 0.00 | 0.00 | 0.00 | 72 | 1017.8 |
| 20260503025941 | 41 | 341 | 0.0 | 0.0 | 0.00 | 0.00 | 0.00 | 70 | 1017.7 |
| 20260503024453 | 43 | 341 | 0.0 | 0.0 | 0.00 | 0.00 | 0.00 | 65 | 1017.7 |
| 20260503023925 | 43 | 341 | 0.0 | 0.0 | 0.00 | 0.00 | 0.00 | 63 | 1017.7 |
| 20260503022408 | 44 | 341 | 0.0 | 1.0 | 0.00 | 0.00 | 0.00 | 61 | 1017.5 |
| 20260503021941 | 44 | 341 | 0.0 | 2.0 | 0.00 | 0.00 | 0.00 | 61 | 1017.5 |
| 20260503020453 | 45 | 341 | 1.0 | 3.0 | 0.00 | 0.00 | 0.00 | 59 | 1017.4 |
| 20260503015417 | 45 | 341 | 1.0 | 3.0 | 0.00 | 0.00 | 0.00 | 58 | 1017.2 |
| 20260503014950 | 45 | 341 | 1.0 | 3.0 | 0.00 | 0.00 | 0.00 | 58 | 1017.1 |
| 20260503014422 | 46 | 347 | 1.0 | 3.0 | 0.00 | 0.00 | 0.00 | 57 | 1017.0 |
| 20260503013955 | 46 | 347 | 1.0 | 4.0 | 0.00 | 0.00 | 0.00 | 57 | 1017.0 |
| 20260503013427 | 46 | 347 | 2.0 | 4.0 | 0.00 | 0.00 | 0.00 | 56 | 1017.0 |
| 20260503012423 | 46 | 341 | 1.0 | 3.0 | 0.00 | 0.00 | 0.00 | 55 | 1016.9 |
| 20260503011957 | 47 | 341 | 3.0 | 3.0 | 0.00 | 0.00 | 0.00 | 55 | 1016.9 |
| 20260503010946 | 47 | 343 | 1.0 | 6.0 | 0.00 | 0.00 | 0.00 | 53 | 1016.7 |
| 20260503010458 | 47 | 72 | 1.0 | 6.0 | 0.00 | 0.00 | 0.00 | 54 | 1016.7 |
| 20260503005423 | 47 | 2 | 2.0 | 3.0 | 0.00 | 0.00 | 0.00 | 54 | 1016.6 |
| 20260503004956 | 47 | 295 | 0.0 | 3.0 | 0.00 | 0.00 | 0.00 | 54 | 1016.6 |
| 20260503004412 | 48 | 318 | 1.0 | 2.0 | 0.00 | 0.00 | 0.00 | 53 | 1016.5 |
| 20260503003946 | 48 | 318 | 1.0 | 3.0 | 0.00 | 0.00 | 0.00 | 51 | 1016.5 |
| 20260503003417 | 48 | 295 | 1.0 | 3.0 | 0.00 | 0.00 | 0.00 | 51 | 1016.4 |
| 20260503002951 | 49 | 273 | 3.0 | 4.0 | 0.00 | 0.00 | 0.00 | 50 | 1016.4 |
| 20260503001414 | 49 | 320 | 3.0 | 4.0 | 0.00 | 0.00 | 0.00 | 48 | 1016.2 |
| 20260503000947 | 50 | 268 | 1.0 | 3.0 | 0.00 | 0.00 | 0.00 | 48 | 1016.2 |
| 20260502234949 | 51 | 345 | 1.0 | 8.0 | 0.00 | 0.00 | 0.00 | 47 | 1015.9 |
| 20260502234422 | 51 | 297 | 2.0 | 8.0 | 0.00 | 0.00 | 0.00 | 46 | 1015.9 |
| 20260502233955 | 51 | 293 | 1.0 | 5.0 | 0.00 | 0.00 | 0.00 | 46 | 1015.9 |
| 20260502233426 | 52 | 14 | 1.0 | 5.0 | 0.00 | 0.00 | 0.00 | 45 | 1015.8 |
| 20260502233000 | 52 | 287 | 3.0 | 7.0 | 0.00 | 0.00 | 0.00 | 44 | 1015.8 |
| 20260502232432 | 52 | 268 | 4.0 | 7.0 | 0.00 | 0.00 | 0.00 | 44 | 1015.7 |
| 20260502231428 | 53 | 24 | 2.0 | 4.0 | 0.00 | 0.00 | 0.00 | 43 | 1015.7 |
| 20260502231002 | 53 | 275 | 3.0 | 3.0 | 0.00 | 0.00 | 0.00 | 43 | 1015.7 |
| 20260502225420 | 54 | 255 | 4.0 | 8.0 | 0.00 | 0.00 | 0.00 | 41 | 1015.7 |
| 20260502224953 | 54 | 238 | 2.0 | 4.0 | 0.00 | 0.00 | 0.00 | 43 | 1015.6 |
| 20260502224000 | 53 | 282 | 5.0 | 10.0 | 0.00 | 0.00 | 0.00 | 42 | 1015.6 |
| 20260502223415 | 54 | 321 | 3.0 | 8.0 | 0.00 | 0.00 | 0.00 | 41 | 1015.7 |
| 20260502222423 | 54 | 305 | 4.0 | 6.0 | 0.00 | 0.00 | 0.00 | 40 | 1015.6 |
| 20260502221954 | 55 | 41 | 4.0 | 7.0 | 0.00 | 0.00 | 0.00 | 40 | 1015.6 |
| 20260502221001 | 55 | 196 | 3.0 | 10.0 | 0.00 | 0.00 | 0.00 | 40 | 1015.6 |
| 20260502220432 | 54 | 297 | 4.0 | 10.0 | 0.00 | 0.00 | 0.00 | 42 | 1015.4 |
| 20260502215926 | 55 | 57 | 3.0 | 9.0 | 0.00 | 0.00 | 0.00 | 39 | 1015.4 |
| 20260502214933 | 55 | 290 | 5.0 | 7.0 | 0.00 | 0.00 | 0.00 | 40 | 1015.4 |
| 20260502214505 | 55 | 38 | 4.0 | 9.0 | 0.00 | 0.00 | 0.00 | 40 | 1015.4 |
| 20260502213937 | 55 | 289 | 3.0 | 9.0 | 0.00 | 0.00 | 0.00 | 42 | 1015.4 |
| 20260502213408 | 55 | 239 | 6.0 | 7.0 | 0.00 | 0.00 | 0.00 | 40 | 1015.4 |
| 20260502212941 | 55 | 220 | 3.0 | 8.0 | 0.00 | 0.00 | 0.00 | 43 | 1015.4 |
| 20260502211934 | 56 | 276 | 2.0 | 5.0 | 0.00 | 0.00 | 0.00 | 40 | 1015.4 |
| 20260502211506 | 55 | 302 | 1.0 | 7.0 | 0.00 | 0.00 | 0.00 | 45 | 1015.3 |
| 20260502210937 | 54 | 272 | 3.0 | 10.0 | 0.00 | 0.00 | 0.00 | 42 | 1015.4 |
| 20260502210408 | 55 | 291 | 3.0 | 10.0 | 0.00 | 0.00 | 0.00 | 43 | 1015.4 |
| 20260502205918 | 55 | 22 | 5.0 | 9.0 | 0.00 | 0.00 | 0.00 | 40 | 1015.3 |
| 20260502205005 | 54 | 231 | 5.0 | 11.0 | 0.00 | 0.00 | 0.00 | 40 | 1015.4 |
| 20260502204436 | 54 | 270 | 3.0 | 11.0 | 0.00 | 0.00 | 0.00 | 42 | 1015.4 |
| 20260502202945 | 55 | 309 | 4.0 | 9.0 | 0.00 | 0.00 | 0.00 | 41 | 1015.3 |
| 20260502202416 | 54 | 222 | 6.0 | 9.0 | 0.00 | 0.00 | 0.00 | 40 | 1015.4 |
| 20260502201948 | 55 | 311 | 4.0 | 8.0 | 0.00 | 0.00 | 0.00 | 42 | 1015.4 |
| 20260502201419 | 54 | 270 | 4.0 | 9.0 | 0.00 | 0.00 | 0.00 | 47 | 1015.5 |
| 20260502200952 | 53 | 288 | 5.0 | 9.0 | 0.00 | 0.00 | 0.00 | 44 | 1015.6 |